McComb, MS (39648)

3:22 AM CST on December 04, 2016 (GMT -0600)
West McComb | | Change Station

Elev 463 ft 31.24 °N, 90.51 °W | Updated 12 minutes ago

Rain
Rain Mist
50.5 °F
Feels Like 50.5 °F
N
4.0
Wind Variable Wind from East

Today
High -- | Low -- °F
--% Chance of Precip.
Yesterday
High -- | Low -- °F
Precip. -- in
Pressure 29.93 in
Visibility 3.0 miles
Clouds Few 1900 ft
Mostly Cloudy 4400 ft
Overcast 12000 ft
Dew Point 49 °F
Humidity 96%
Rainfall 0.61 in
Snow Depth Not available.
6:45 AM 4:58 PM
Waxing Crescent, 21% visible
SPECI KMCB 040914Z AUTO 15009KT 3SM RA BR FEW019 BKN044 OVC120 11/09 A2993 RMK AO2 P0016 T01060094
Pressure 29.93 in
Visibility 3.0 miles
Clouds Few 1900 ft
Mostly Cloudy 4400 ft
Overcast 12000 ft
Dew Point 49 °F
Humidity 96%
Rainfall 0.61 in
Snow Depth Not available.
6:45 AM 4:58 PM
Waxing Crescent, 21% visible
SPECI KMCB 040914Z AUTO 15009KT 3SM RA BR FEW019 BKN044 OVC120 11/09 A2993 RMK AO2 P0016 T01060094

10-Day Weather Forecast

Almanac

Astronomy

Dec. 04, 2016 Rise Set
Actual Time
Civil Twilight
Nautical Twilight
Astronomical Twilight
Moon
Length of Visible Light
Length of Day
Tomorrow will be .
, % of the Moon is Illuminated

Today's Extremes

State Highs State Lows

Community

WunderPhotos

Upload Photos

1,955,587 photos uploaded!

WunderBlog® & News

Nearby

Air Quality

  Air Quality AQ Index Pollutant
Not available.

Snow Depth

Station Depth Elevation

Earthquake Activity

City Distance Mag. Time & Date
Minimum magnitude displayed is 2.5.

Coastal Water Temperatures

Place Temperature

Stations

Nearby Weather Stations

Station Location Temp. Windchill Dew Point Humidity Wind Precip. Elev Updated Type
                   

Watches & Warnings

There are currently no watches in effect.